Time;durP1;ratioP1;P1;durP2;ratioP2;P2;SDS_P1;SDS_P2;PMS_P1;PMS_P2;Temp;Humidity;BMP_temperature;BMP_pressure;BME280_temperature;BME280_humidity;BME280_pressure;Samples;Min_cycle;Max_cycle;Signal;HPM_P1;HPM_P2
2021/03/07 00:00:10;;;;;;;8.18;6.38;;;23.10;26.80;;;;;;5028713;28;20033;-56
2021/03/07 00:02:35;;;;;;;7.85;5.90;;;23.10;26.30;;;;;;5031215;28;20449;-59
2021/03/07 00:05:02;;;;;;;7.53;5.18;;;23.10;26.30;;;;;;5028146;28;20029;-55
2021/03/07 00:07:28;;;;;;;6.25;5.05;;;23.00;26.30;;;;;;5024051;28;20094;-54
2021/03/07 00:09:54;;;;;;;8.27;5.93;;;23.00;26.30;;;;;;5031479;28;20112;-61
2021/03/07 00:12:20;;;;;;;6.53;5.20;;;23.00;26.30;;;;;;5031292;28;20172;-58
2021/03/07 00:14:45;;;;;;;7.15;5.07;;;23.00;26.30;;;;;;5027056;28;20021;-53
2021/03/07 00:17:11;;;;;;;6.97;5.05;;;23.00;26.30;;;;;;5031424;28;20040;-58
2021/03/07 00:19:37;;;;;;;6.03;4.80;;;23.00;26.30;;;;;;5025047;28;20032;-57
2021/03/07 00:22:03;;;;;;;7.20;4.60;;;22.90;26.30;;;;;;5027648;28;21734;-56
2021/03/07 00:24:29;;;;;;;6.65;4.85;;;22.90;26.30;;;;;;5025665;28;20030;-57
2021/03/07 00:26:55;;;;;;;5.80;4.07;;;22.90;26.30;;;;;;5026030;28;20026;-60
2021/03/07 00:29:21;;;;;;;7.30;4.60;;;22.90;26.30;;;;;;5027420;28;20041;-59
2021/03/07 00:31:46;;;;;;;6.43;4.32;;;22.90;26.30;;;;;;5028815;28;20053;-59
2021/03/07 00:34:12;;;;;;;5.38;3.97;;;22.90;26.30;;;;;;5029208;28;20045;-59
2021/03/07 00:36:38;;;;;;;5.40;4.00;;;22.80;26.20;;;;;;5025591;28;20021;-57
2021/03/07 00:39:05;;;;;;;6.60;3.90;;;22.80;26.20;;;;;;5024111;28;20036;-62
2021/03/07 00:41:33;;;;;;;6.25;3.95;;;22.80;26.20;;;;;;5021430;28;20033;-56
2021/03/07 00:43:58;;;;;;;5.95;4.00;;;22.80;26.20;;;;;;5024080;28;20427;-56
2021/03/07 00:46:24;;;;;;;5.80;3.75;;;22.80;26.20;;;;;;5028059;28;20030;-56
2021/03/07 00:48:50;;;;;;;5.68;3.40;;;22.80;26.30;;;;;;5029279;28;20460;-55
2021/03/07 00:51:16;;;;;;;4.90;3.30;;;22.80;26.70;;;;;;5026426;28;20115;-57
2021/03/07 00:53:41;;;;;;;5.00;3.30;;;22.80;26.20;;;;;;5026775;28;20036;-58
2021/03/07 00:56:07;;;;;;;5.22;3.38;;;22.80;26.20;;;;;;5026141;28;20017;-54
2021/03/07 00:58:33;;;;;;;5.65;3.95;;;22.80;26.20;;;;;;5027216;28;20412;-59
2021/03/07 01:00:59;;;;;;;4.65;3.22;;;22.80;26.20;;;;;;5026254;28;20030;-58
2021/03/07 01:03:25;;;;;;;4.25;3.20;;;22.70;26.20;;;;;;5025486;28;20079;-56
2021/03/07 01:05:51;;;;;;;4.30;3.05;;;22.70;26.20;;;;;;5027016;28;20033;-59
2021/03/07 01:08:17;;;;;;;4.38;3.03;;;22.70;26.70;;;;;;5022354;28;20041;-59
2021/03/07 01:10:44;;;;;;;4.10;2.97;;;22.70;26.20;;;;;;5024494;28;20030;-57
2021/03/07 01:13:13;;;;;;;4.50;2.97;;;22.70;26.30;;;;;;5030956;28;20029;-58
2021/03/07 01:15:40;;;;;;;4.05;2.75;;;22.70;26.20;;;;;;5029379;28;20033;-59
2021/03/07 01:18:06;;;;;;;4.78;2.72;;;22.70;26.20;;;;;;5023719;28;20086;-56
2021/03/07 01:20:34;;;;;;;4.57;3.08;;;22.70;26.20;;;;;;5030660;28;20032;-51
2021/03/07 01:23:00;;;;;;;4.75;2.90;;;22.70;26.20;;;;;;5038916;28;20322;-52
2021/03/07 01:25:31;;;;;;;4.32;2.85;;;22.60;26.20;;;;;;5039614;28;20045;-53
2021/03/07 01:27:57;;;;;;;4.75;2.80;;;22.60;26.20;;;;;;5033828;28;20042;-58
2021/03/07 01:30:25;;;;;;;4.13;2.78;;;22.60;26.20;;;;;;5033580;28;20057;-56
2021/03/07 01:32:51;;;;;;;3.42;2.40;;;22.60;26.20;;;;;;5034120;28;20029;-52
2021/03/07 01:35:18;;;;;;;3.65;2.30;;;22.60;26.20;;;;;;5029975;28;20025;-59
2021/03/07 01:37:43;;;;;;;3.97;2.45;;;22.60;26.20;;;;;;5030268;28;20037;-56
2021/03/07 01:40:14;;;;;;;2.85;2.20;;;22.60;26.20;;;;;;5031957;28;20385;-56
2021/03/07 01:42:44;;;;;;;4.13;2.35;;;22.60;26.20;;;;;;5028572;28;20388;-56
2021/03/07 01:45:11;;;;;;;3.42;2.28;;;22.60;26.20;;;;;;5034652;28;20029;-59
2021/03/07 01:47:42;;;;;;;3.88;2.40;;;22.50;26.10;;;;;;5033185;28;20041;-51
2021/03/07 01:50:08;;;;;;;3.13;2.40;;;22.50;26.10;;;;;;5032543;28;20448;-53
2021/03/07 01:52:35;;;;;;;3.50;2.20;;;22.50;26.10;;;;;;5033691;28;20021;-51
2021/03/07 01:55:00;;;;;;;3.83;1.95;;;22.50;26.20;;;;;;5032025;28;20102;-58
2021/03/07 01:57:27;;;;;;;3.67;2.22;;;22.50;26.20;;;;;;5032159;28;20461;-55
2021/03/07 01:59:58;;;;;;;3.72;2.10;;;22.50;26.10;;;;;;5036487;28;20333;-57
2021/03/07 02:02:25;;;;;;;3.30;2.03;;;22.50;26.10;;;;;;5029587;28;20036;-51
2021/03/07 02:04:53;;;;;;;2.83;1.77;;;22.50;26.20;;;;;;5032470;28;20025;-58
2021/03/07 02:07:19;;;;;;;3.13;2.05;;;22.40;26.10;;;;;;5028477;28;20041;-58
2021/03/07 02:09:45;;;;;;;3.05;2.15;;;22.50;26.20;;;;;;5026504;28;20345;-60
2021/03/07 02:12:10;;;;;;;3.63;2.05;;;22.40;26.10;;;;;;5028198;28;20025;-59
2021/03/07 02:14:38;;;;;;;3.28;1.90;;;22.40;26.20;;;;;;5031790;28;20047;-61
2021/03/07 02:17:04;;;;;;;3.33;1.77;;;22.40;26.20;;;;;;5030788;28;20117;-54
2021/03/07 02:19:37;;;;;;;2.83;1.85;;;22.40;26.20;;;;;;5028197;28;20022;-59
2021/03/07 02:22:05;;;;;;;2.90;1.83;;;22.40;26.20;;;;;;5029429;28;20087;-56
2021/03/07 02:24:32;;;;;;;3.45;1.90;;;22.40;26.80;;;;;;5031614;28;20036;-59
2021/03/07 02:27:00;;;;;;;2.38;1.70;;;22.40;26.30;;;;;;5031625;28;20034;-53
2021/03/07 02:29:25;;;;;;;2.65;1.77;;;22.40;26.30;;;;;;5027631;28;20468;-59
2021/03/07 02:31:57;;;;;;;4.43;1.63;;;22.40;26.30;;;;;;5024714;28;20033;-55
2021/03/07 02:34:35;;;;;;;2.78;1.45;;;22.40;26.30;;;;;;5029558;28;20048;-59
2021/03/07 02:37:08;;;;;;;2.35;1.40;;;22.40;26.50;;;;;;5027817;28;20079;-58
2021/03/07 02:39:37;;;;;;;1.45;1.20;;;22.30;26.20;;;;;;5030559;28;20037;-58
2021/03/07 02:42:10;;;;;;;2.05;1.38;;;22.30;26.20;;;;;;5029668;28;20502;-59
2021/03/07 02:44:40;;;;;;;2.60;1.52;;;22.30;26.20;;;;;;5029585;28;20040;-56
2021/03/07 02:47:07;;;;;;;2.30;1.30;;;22.30;26.20;;;;;;5025740;28;20029;-59
2021/03/07 02:49:34;;;;;;;4.75;1.50;;;22.30;26.20;;;;;;5030286;28;20084;-59
2021/03/07 02:52:03;;;;;;;2.45;1.40;;;22.30;26.20;;;;;;5025702;28;20466;-58
2021/03/07 02:54:33;;;;;;;2.10;1.33;;;22.30;26.20;;;;;;5027445;28;20498;-59
2021/03/07 02:57:00;;;;;;;2.28;1.40;;;22.30;26.20;;;;;;5027337;28;20441;-59
2021/03/07 02:59:27;;;;;;;2.33;1.40;;;22.20;26.20;;;;;;5024605;28;20096;-56
2021/03/07 03:01:59;;;;;;;2.72;1.60;;;22.30;26.20;;;;;;5026225;28;20476;-55
2021/03/07 03:04:26;;;;;;;2.85;1.50;;;22.30;26.20;;;;;;5026835;28;20033;-57
2021/03/07 03:06:53;;;;;;;2.47;1.55;;;22.20;26.20;;;;;;5028829;28;20156;-56
2021/03/07 03:09:21;;;;;;;1.80;1.23;;;22.20;26.20;;;;;;5026918;28;20095;-56
2021/03/07 03:11:51;;;;;;;2.22;1.30;;;22.20;26.20;;;;;;5028607;28;20447;-58
2021/03/07 03:14:17;;;;;;;1.73;1.30;;;22.20;26.20;;;;;;5025167;28;20029;-59
2021/03/07 03:16:51;;;;;;;2.08;1.17;;;22.20;26.20;;;;;;5026776;28;20048;-58
2021/03/07 03:19:20;;;;;;;2.55;1.40;;;22.20;26.20;;;;;;5024036;28;20030;-57
2021/03/07 03:21:46;;;;;;;1.70;1.20;;;22.20;26.20;;;;;;5027805;28;20100;-57
2021/03/07 03:24:12;;;;;;;2.22;1.33;;;22.20;26.20;;;;;;5030364;28;20048;-55
2021/03/07 03:26:39;;;;;;;2.10;1.40;;;22.20;26.20;;;;;;5027565;28;20097;-55
2021/03/07 03:29:07;;;;;;;1.70;1.02;;;22.10;26.10;;;;;;5028412;28;20144;-56
2021/03/07 03:31:36;;;;;;;2.13;1.17;;;22.10;26.10;;;;;;5025006;28;20138;-59
2021/03/07 03:34:06;;;;;;;1.63;0.90;;;22.10;26.10;;;;;;5026347;28;20036;-58
2021/03/07 03:36:33;;;;;;;2.38;1.35;;;22.10;26.10;;;;;;5024658;28;20029;-59
2021/03/07 03:39:13;;;;;;;1.67;1.00;;;22.10;26.10;;;;;;5024687;28;20022;-57
2021/03/07 03:41:39;;;;;;;2.63;1.10;;;22.10;26.10;;;;;;5041638;28;20041;-62
2021/03/07 03:44:11;;;;;;;2.20;1.15;;;22.10;26.20;;;;;;5030696;28;20060;-58
2021/03/07 03:46:40;;;;;;;2.38;1.38;;;22.10;26.10;;;;;;5028155;28;20325;-57
2021/03/07 03:49:17;;;;;;;2.00;1.23;;;22.10;26.10;;;;;;5027144;28;20110;-60
2021/03/07 03:51:44;;;;;;;1.75;0.85;;;22.10;26.20;;;;;;5026573;28;20039;-59
2021/03/07 03:54:11;;;;;;;1.83;1.20;;;22.10;26.20;;;;;;5024271;28;20029;-60
2021/03/07 03:56:37;;;;;;;1.65;0.90;;;22.00;26.10;;;;;;5030467;28;20033;-59
2021/03/07 03:59:04;;;;;;;1.33;0.80;;;22.00;26.10;;;;;;5022074;28;20052;-59
2021/03/07 04:01:33;;;;;;;1.90;1.30;;;22.00;26.10;;;;;;5026323;28;20037;-59
2021/03/07 04:04:03;;;;;;;1.70;1.10;;;22.00;26.10;;;;;;5028193;28;20022;-59
2021/03/07 04:06:29;;;;;;;1.33;1.02;;;22.00;26.10;;;;;;5026430;28;20344;-57
2021/03/07 04:08:55;;;;;;;2.38;1.20;;;22.00;26.10;;;;;;5029124;28;20480;-59
2021/03/07 04:11:24;;;;;;;0.88;0.73;;;22.00;26.10;;;;;;5023584;28;20033;-59
2021/03/07 04:13:53;;;;;;;1.13;0.70;;;22.00;26.20;;;;;;5025388;28;20053;-59
2021/03/07 04:16:19;;;;;;;2.15;1.02;;;22.00;26.20;;;;;;5028464;28;20445;-58
2021/03/07 04:18:46;;;;;;;1.60;1.00;;;22.00;26.10;;;;;;5025943;28;20033;-59
2021/03/07 04:21:14;;;;;;;2.17;1.00;;;22.00;26.10;;;;;;5022633;28;20049;-58
2021/03/07 04:23:40;;;;;;;1.30;0.80;;;22.00;26.10;;;;;;5026578;28;20025;-59
2021/03/07 04:26:07;;;;;;;1.45;0.80;;;22.00;26.10;;;;;;5027246;28;20025;-60
2021/03/07 04:28:33;;;;;;;1.23;0.77;;;22.00;26.10;;;;;;5028941;28;20075;-58
2021/03/07 04:30:59;;;;;;;1.63;0.93;;;22.00;26.10;;;;;;5023004;28;20163;-60
2021/03/07 04:33:25;;;;;;;2.10;1.17;;;21.90;26.10;;;;;;5025478;28;20314;-60
2021/03/07 04:35:51;;;;;;;1.23;0.90;;;21.90;26.00;;;;;;5029370;28;20040;-61
2021/03/07 04:38:17;;;;;;;1.30;0.80;;;21.90;26.00;;;;;;5025224;28;20049;-60
2021/03/07 04:40:43;;;;;;;1.20;0.77;;;21.90;26.00;;;;;;5027760;28;20061;-58
2021/03/07 04:43:09;;;;;;;1.52;0.80;;;21.90;26.00;;;;;;5025893;28;20065;-59
2021/03/07 04:45:35;;;;;;;1.92;1.00;;;21.90;26.00;;;;;;5029034;28;20025;-59
2021/03/07 04:48:03;;;;;;;2.50;0.70;;;21.90;26.00;;;;;;5031553;28;20145;-60
2021/03/07 04:50:29;;;;;;;1.00;0.73;;;21.90;26.10;;;;;;5033388;28;20029;-59
2021/03/07 04:52:54;;;;;;;1.50;0.90;;;21.90;26.10;;;;;;5032165;28;20025;-55
2021/03/07 04:55:21;;;;;;;1.58;0.98;;;21.80;26.00;;;;;;5031844;28;20029;-58
2021/03/07 04:57:46;;;;;;;1.20;0.70;;;21.90;26.10;;;;;;5028594;28;20129;-58
2021/03/07 05:00:18;;;;;;;0.60;0.50;;;21.80;26.00;;;;;;5032045;28;20112;-59
2021/03/07 05:02:44;;;;;;;0.95;0.63;;;21.80;26.00;;;;;;5026715;28;20120;-59
2021/03/07 05:05:10;;;;;;;1.83;0.70;;;21.80;26.00;;;;;;5029273;28;20112;-57
2021/03/07 05:07:36;;;;;;;1.20;0.77;;;21.80;26.00;;;;;;5026586;28;20046;-54
2021/03/07 05:10:03;;;;;;;1.17;0.73;;;21.80;26.00;;;;;;5028533;28;20026;-59
2021/03/07 05:12:29;;;;;;;0.82;0.50;;;21.80;26.00;;;;;;5028550;28;20035;-56
2021/03/07 05:14:55;;;;;;;0.90;0.70;;;21.80;26.00;;;;;;5029855;28;20044;-59
2021/03/07 05:17:24;;;;;;;0.98;0.70;;;21.80;26.00;;;;;;5030547;28;20040;-59
2021/03/07 05:19:50;;;;;;;1.55;0.90;;;21.80;26.00;;;;;;5023748;28;20022;-57
2021/03/07 05:22:16;;;;;;;1.15;0.63;;;21.80;26.00;;;;;;5031963;28;20112;-59
2021/03/07 05:24:41;;;;;;;0.98;0.70;;;21.80;26.00;;;;;;5032226;28;20419;-56
2021/03/07 05:27:07;;;;;;;2.05;0.95;;;21.70;26.00;;;;;;5030498;28;20060;-53
2021/03/07 05:29:37;;;;;;;1.35;0.60;;;21.80;26.00;;;;;;5030728;28;20045;-56
2021/03/07 05:32:05;;;;;;;0.80;0.70;;;21.80;26.00;;;;;;5032391;28;20107;-59
2021/03/07 05:34:31;;;;;;;1.25;0.52;;;21.70;26.00;;;;;;5030878;28;20025;-58
2021/03/07 05:36:57;;;;;;;1.25;0.60;;;21.70;26.00;;;;;;5031079;28;20029;-59
2021/03/07 05:39:25;;;;;;;1.13;0.60;;;21.70;26.00;;;;;;5029645;28;20021;-57
2021/03/07 05:41:52;;;;;;;1.00;0.50;;;21.70;26.00;;;;;;5028976;28;20032;-53
2021/03/07 05:44:18;;;;;;;1.27;0.80;;;21.70;26.00;;;;;;5027338;28;20094;-58
2021/03/07 05:46:44;;;;;;;1.70;0.70;;;21.70;26.00;;;;;;5030220;28;20033;-54
2021/03/07 05:49:10;;;;;;;0.70;0.60;;;21.70;26.00;;;;;;5033793;28;20037;-53
2021/03/07 05:51:36;;;;;;;0.65;0.50;;;21.70;26.00;;;;;;5031046;28;20049;-59
2021/03/07 05:54:04;;;;;;;0.82;0.60;;;21.70;26.10;;;;;;5024934;28;20026;-60
2021/03/07 05:56:31;;;;;;;2.22;0.70;;;21.70;26.20;;;;;;5026527;28;20405;-57
2021/03/07 05:58:58;;;;;;;1.63;0.60;;;21.70;26.20;;;;;;5029487;28;20846;-55
2021/03/07 06:01:24;;;;;;;1.10;0.60;;;21.70;26.20;;;;;;5031316;28;20031;-56
2021/03/07 06:03:50;;;;;;;0.77;0.55;;;21.60;26.20;;;;;;5028557;28;20037;-60
2021/03/07 06:06:16;;;;;;;1.02;0.63;;;21.70;26.20;;;;;;5025012;28;20029;-55
2021/03/07 06:08:42;;;;;;;0.98;0.57;;;21.60;26.20;;;;;;5028102;28;20069;-60
2021/03/07 06:11:08;;;;;;;0.95;0.45;;;21.60;26.20;;;;;;5029486;28;20428;-60
2021/03/07 06:13:38;;;;;;;0.60;0.50;;;21.70;26.30;;;;;;5031012;28;20116;-58
2021/03/07 06:16:10;;;;;;;0.50;0.40;;;21.60;26.20;;;;;;5026541;28;20044;-58
2021/03/07 06:18:45;;;;;;;0.68;0.38;;;21.60;26.20;;;;;;5027976;28;20029;-59
2021/03/07 06:21:31;;;;;;;1.20;0.50;;;21.60;26.20;;;;;;5027976;28;20037;-55
2021/03/07 06:23:58;;;;;;;0.90;0.35;;;21.60;26.20;;;;;;5028201;28;20124;-58
2021/03/07 06:26:26;;;;;;;0.60;0.40;;;21.60;26.20;;;;;;5031577;28;20040;-59
2021/03/07 06:29:10;;;;;;;0.50;0.30;;;21.60;26.20;;;;;;5028225;28;20026;-60
2021/03/07 06:31:36;;;;;;;;;;;21.60;26.20;;;;;;5028253;28;20127;-58
2021/03/07 06:34:03;;;;;;;0.82;0.30;;;21.50;26.20;;;;;;5026868;28;19987;-60
2021/03/07 06:36:30;;;;;;;0.90;0.50;;;21.60;26.30;;;;;;5027420;28;20022;-60
2021/03/07 06:38:59;;;;;;;1.02;0.45;;;21.50;26.20;;;;;;5025951;28;20049;-60
2021/03/07 06:41:31;;;;;;;0.75;0.40;;;21.60;26.30;;;;;;5024263;28;20195;-60
2021/03/07 06:44:13;;;;;;;0.95;0.50;;;21.50;26.20;;;;;;5030561;28;20025;-61
2021/03/07 06:46:45;;;;;;;0.68;0.50;;;21.50;26.20;;;;;;5025910;28;20848;-60
2021/03/07 06:49:27;;;;;;;0.95;0.47;;;21.50;26.20;;;;;;5028214;28;20124;-57
2021/03/07 06:52:00;;;;;;;0.93;0.50;;;21.50;26.30;;;;;;5023946;28;20033;-59
2021/03/07 06:54:28;;;;;;;0.70;0.40;;;21.50;26.30;;;;;;5030314;28;20185;-58
2021/03/07 06:56:55;;;;;;;0.65;0.47;;;21.50;26.30;;;;;;5028379;28;20101;-57
2021/03/07 06:59:24;;;;;;;1.33;0.40;;;21.50;26.40;;;;;;5008670;28;636869;-62
2021/03/07 07:01:57;;;;;;;0.82;0.50;;;21.50;26.30;;;;;;5030606;28;20044;-59
2021/03/07 07:04:25;;;;;;;0.60;0.45;;;21.50;26.30;;;;;;5028086;28;20033;-60
2021/03/07 07:07:06;;;;;;;1.10;0.60;;;21.50;26.40;;;;;;5027020;28;20109;-59
2021/03/07 07:09:33;;;;;;;0.82;0.40;;;21.50;26.40;;;;;;5026386;28;20048;-60
2021/03/07 07:11:59;;;;;;;0.43;0.20;;;21.50;26.40;;;;;;5000417;28;20058;-61
2021/03/07 07:14:31;;;;;;;0.85;0.38;;;21.50;26.40;;;;;;5004226;28;20056;-59
2021/03/07 07:16:57;;;;;;;1.10;0.45;;;21.50;26.50;;;;;;5004678;28;20573;-58
2021/03/07 07:19:23;;;;;;;0.88;0.35;;;21.50;26.50;;;;;;5004552;28;20621;-58
2021/03/07 07:21:49;;;;;;;0.75;0.30;;;21.50;26.50;;;;;;5005855;28;20041;-59
2021/03/07 07:24:16;;;;;;;0.60;0.30;;;21.50;26.50;;;;;;5009552;28;20116;-58
2021/03/07 07:26:44;;;;;;;1.08;0.40;;;21.50;26.50;;;;;;4988808;28;20100;-60
2021/03/07 07:29:10;;;;;;;0.90;0.60;;;21.50;26.50;;;;;;5007271;28;20041;-60
2021/03/07 07:31:49;;;;;;;0.90;0.47;;;21.50;26.50;;;;;;5005076;28;20046;-56
2021/03/07 07:34:17;;;;;;;0.95;0.50;;;21.40;26.50;;;;;;5005972;28;20346;-58
2021/03/07 07:36:53;;;;;;;0.95;0.68;;;21.40;26.50;;;;;;5006611;28;20548;-60
2021/03/07 07:39:33;;;;;;;0.70;0.40;;;21.40;26.50;;;;;;5004027;28;20040;-59
2021/03/07 07:42:19;;;;;;;0.63;0.35;;;21.40;26.50;;;;;;5007826;28;20112;-58
2021/03/07 07:44:46;;;;;;;2.83;0.60;;;21.50;26.50;;;;;;5023467;28;20088;-59
2021/03/07 07:47:13;;;;;;;2.15;0.50;;;21.40;26.50;;;;;;5025447;28;20030;-58
2021/03/07 07:49:41;;;;;;;1.08;0.40;;;21.40;26.50;;;;;;5021700;28;20116;-62
2021/03/07 07:52:25;;;;;;;1.02;0.50;;;21.40;26.50;;;;;;5027925;28;20033;-60
2021/03/07 07:54:59;;;;;;;0.68;0.40;;;21.40;26.50;;;;;;5028292;28;20033;-60
2021/03/07 07:57:31;;;;;;;0.88;0.50;;;21.40;26.60;;;;;;5025431;28;20112;-59
2021/03/07 07:59:58;;;;;;;0.88;0.50;;;21.40;26.60;;;;;;5030054;28;20079;-59
2021/03/07 08:02:45;;;;;;;1.30;0.50;;;21.40;26.60;;;;;;5028286;28;20034;-56
2021/03/07 08:05:20;;;;;;;0.98;0.40;;;21.40;26.70;;;;;;5022651;28;20361;-59
2021/03/07 08:08:06;;;;;;;0.77;0.40;;;21.40;26.80;;;;;;5023621;28;20056;-58
2021/03/07 08:10:50;;;;;;;0.60;0.35;;;21.40;26.90;;;;;;5023448;28;20460;-63
2021/03/07 08:13:27;;;;;;;0.60;0.30;;;21.50;26.90;;;;;;5021457;28;20033;-59
2021/03/07 08:15:57;;;;;;;0.90;0.40;;;21.50;27.10;;;;;;5027446;28;20029;-58
2021/03/07 08:18:42;;;;;;;0.85;0.40;;;21.40;26.90;;;;;;5022921;28;20044;-59
2021/03/07 08:21:10;;;;;;;0.65;0.50;;;21.50;26.90;;;;;;5021998;28;20022;-60
2021/03/07 08:23:58;;;;;;;1.02;0.52;;;21.50;26.90;;;;;;5020312;28;20391;-57
2021/03/07 08:26:46;;;;;;;1.45;0.43;;;21.60;26.80;;;;;;5021214;28;20038;-58
2021/03/07 08:29:38;;;;;;;0.60;0.50;;;21.70;26.70;;;;;;5022877;28;20056;-60
2021/03/07 08:32:25;;;;;;;1.10;0.57;;;21.70;26.60;;;;;;5022468;28;20179;-58
2021/03/07 08:34:52;;;;;;;0.88;0.60;;;21.80;26.50;;;;;;5027665;28;20546;-60
2021/03/07 08:37:17;;;;;;;1.40;0.70;;;21.90;26.50;;;;;;5021168;28;20075;-61
2021/03/07 08:39:43;;;;;;;0.73;0.40;;;22.00;26.50;;;;;;5022064;28;20034;-58
2021/03/07 08:42:09;;;;;;;0.50;0.50;;;22.00;26.50;;;;;;5020485;28;20353;-61
2021/03/07 08:44:35;;;;;;;1.40;0.90;;;22.10;26.40;;;;;;5021999;28;20025;-60
2021/03/07 08:47:01;;;;;;;1.10;0.80;;;22.20;26.50;;;;;;5018332;28;20033;-61
2021/03/07 08:49:29;;;;;;;2.85;1.10;;;22.20;26.50;;;;;;5023634;28;20108;-62
2021/03/07 08:52:01;;;;;;;1.17;0.77;;;22.30;26.50;;;;;;5021492;28;20083;-62
2021/03/07 08:54:30;;;;;;;2.30;1.38;;;22.30;26.50;;;;;;5022045;28;20034;-59
2021/03/07 08:56:56;;;;;;;1.80;1.15;;;22.40;26.50;;;;;;5020153;28;20033;-61
2021/03/07 08:59:27;;;;;;;2.90;1.67;;;22.40;26.40;;;;;;5021175;28;20065;-60
2021/03/07 09:01:54;;;;;;;3.15;2.13;;;22.50;26.30;;;;;;5022025;28;20025;-63
2021/03/07 09:04:20;;;;;;;3.85;2.75;;;22.50;26.30;;;;;;5021730;28;20060;-57
2021/03/07 09:06:47;;;;;;;2.85;2.17;;;22.50;26.30;;;;;;5026423;28;20352;-61
2021/03/07 09:09:16;;;;;;;2.58;2.20;;;22.50;26.20;;;;;;5028936;28;20133;-61
2021/03/07 09:12:03;;;;;;;3.33;2.30;;;22.60;26.20;;;;;;5027159;28;20028;-61
2021/03/07 09:14:40;;;;;;;2.95;2.28;;;22.60;26.00;;;;;;5027895;28;20108;-57
2021/03/07 09:17:17;;;;;;;3.55;2.42;;;22.70;26.00;;;;;;5028599;28;20160;-61
2021/03/07 09:19:43;;;;;;;4.18;2.80;;;22.70;25.80;;;;;;5028714;28;20040;-61
2021/03/07 09:22:25;;;;;;;4.35;2.50;;;22.70;25.80;;;;;;5029295;28;20037;-58
2021/03/07 09:24:55;;;;;;;3.60;2.70;;;22.70;25.70;;;;;;5025934;28;20036;-60
2021/03/07 09:27:23;;;;;;;3.70;2.60;;;22.80;25.60;;;;;;5028125;28;20057;-58
2021/03/07 09:30:14;;;;;;;4.85;3.47;;;22.80;25.50;;;;;;5028989;28;20037;-59
2021/03/07 09:32:45;;;;;;;5.50;4.00;;;22.70;25.40;;;;;;5031743;28;20096;-62
2021/03/07 09:35:31;;;;;;;5.60;4.10;;;22.70;25.30;;;;;;5032290;28;20033;-59
2021/03/07 09:37:59;;;;;;;6.75;5.07;;;22.70;25.20;;;;;;5027609;28;20399;-59
2021/03/07 09:40:28;;;;;;;9.10;6.03;;;22.70;25.30;;;;;;5023796;28;20037;-59
2021/03/07 09:42:56;;;;;;;8.38;6.57;;;22.70;25.30;;;;;;5025538;28;20441;-60
2021/03/07 09:45:22;;;;;;;8.15;6.28;;;22.70;25.30;;;;;;5031852;28;20033;-55
2021/03/07 09:47:49;;;;;;;8.82;5.50;;;22.70;25.30;;;;;;5031949;28;20140;-57
2021/03/07 09:50:16;;;;;;;7.10;4.97;;;22.70;25.40;;;;;;5028196;28;20033;-59
2021/03/07 09:52:44;;;;;;;8.60;4.95;;;22.70;25.60;;;;;;5027290;28;20562;-61
2021/03/07 09:55:11;;;;;;;5.78;4.30;;;22.70;25.60;;;;;;5028668;28;20449;-56
2021/03/07 09:57:38;;;;;;;13.80;4.57;;;22.80;25.70;;;;;;5025342;28;20101;-57
2021/03/07 10:00:05;;;;;;;6.82;3.97;;;22.80;25.80;;;;;;5030087;28;20123;-60
2021/03/07 10:02:38;;;;;;;5.80;4.22;;;22.80;25.70;;;;;;5028778;28;20033;-59
2021/03/07 10:05:12;;;;;;;6.55;3.90;;;22.80;25.70;;;;;;5027367;28;20026;-63
2021/03/07 10:07:38;;;;;;;5.43;3.83;;;22.80;25.60;;;;;;5028402;28;20503;-60
2021/03/07 10:10:17;;;;;;;5.88;3.95;;;22.80;25.70;;;;;;5026972;28;20030;-59
2021/03/07 10:12:48;;;;;;;4.68;3.70;;;22.90;25.70;;;;;;5026546;28;20030;-55
2021/03/07 10:15:33;;;;;;;4.13;3.05;;;22.80;25.60;;;;;;5030826;28;20087;-61
2021/03/07 10:18:00;;;;;;;3.30;2.72;;;22.90;25.60;;;;;;5022633;28;21132;-62
2021/03/07 10:20:34;;;;;;;3.78;2.58;;;22.90;25.60;;;;;;5026926;28;20353;-60
2021/03/07 10:23:03;;;;;;;3.58;2.50;;;22.90;25.60;;;;;;5026714;28;20029;-56
2021/03/07 10:25:35;;;;;;;4.45;3.22;;;22.90;25.50;;;;;;5028926;28;20048;-57
2021/03/07 10:28:07;;;;;;;8.50;2.97;;;22.90;25.50;;;;;;5025137;28;20128;-60
2021/03/07 10:30:38;;;;;;;4.03;3.20;;;22.90;25.40;;;;;;5024883;28;20107;-61
2021/03/07 10:33:26;;;;;;;3.40;2.20;;;22.90;25.40;;;;;;5026039;28;20056;-52
2021/03/07 10:36:17;;;;;;;1.75;1.27;;;22.90;25.20;;;;;;5031897;28;20332;-60
2021/03/07 10:38:45;;;;;;;5.80;4.07;;;22.80;24.90;;;;;;5028463;28;20038;-59
2021/03/07 10:41:32;;;;;;;14.98;11.73;;;22.60;24.90;;;;;;5032063;28;20452;-58
2021/03/07 10:44:05;;;;;;;19.20;14.95;;;22.60;25.30;;;;;;5030964;28;20044;-55
2021/03/07 10:46:40;;;;;;;24.67;18.27;;;22.50;25.50;;;;;;5025397;28;20172;-64
2021/03/07 10:49:10;;;;;;;27.83;20.10;;;22.50;26.40;;;;;;5028500;28;20041;-56
2021/03/07 10:51:37;;;;;;;30.40;21.52;;;22.60;27.30;;;;;;5028158;28;20460;-58
2021/03/07 10:54:05;;;;;;;28.52;21.20;;;22.60;28.10;;;;;;5030827;28;20037;-59
2021/03/07 10:56:40;;;;;;;28.85;21.83;;;22.60;28.80;;;;;;5027320;28;20076;-59
2021/03/07 10:59:06;;;;;;;31.98;20.58;;;22.60;29.50;;;;;;5022186;28;20030;-59
2021/03/07 11:01:32;;;;;;;29.75;20.92;;;22.70;30.00;;;;;;5030440;28;20053;-58
2021/03/07 11:03:59;;;;;;;25.58;19.17;;;22.70;30.20;;;;;;5028019;28;20026;-60
2021/03/07 11:06:25;;;;;;;25.98;19.35;;;22.70;30.20;;;;;;5023783;28;20021;-61
2021/03/07 11:08:52;;;;;;;23.35;17.35;;;22.80;30.00;;;;;;5024333;28;20503;-58
2021/03/07 11:11:19;;;;;;;23.00;18.10;;;22.90;29.70;;;;;;5021336;28;20111;-61
2021/03/07 11:13:48;;;;;;;22.27;17.30;;;22.90;29.30;;;;;;5025542;28;20044;-59
2021/03/07 11:16:18;;;;;;;21.48;17.58;;;23.00;29.00;;;;;;5027445;28;20527;-59
2021/03/07 11:18:45;;;;;;;25.63;18.60;;;23.00;28.60;;;;;;5022748;28;20502;-60
2021/03/07 11:21:11;;;;;;;29.27;20.15;;;23.10;28.30;;;;;;5027958;28;20017;-61
2021/03/07 11:23:37;;;;;;;28.63;21.05;;;23.10;28.20;;;;;;5023372;28;20029;-61
2021/03/07 11:26:03;;;;;;;33.08;23.10;;;23.10;28.40;;;;;;5032396;28;20466;-58
2021/03/07 11:28:29;;;;;;;36.85;25.38;;;23.10;29.00;;;;;;5028107;28;20122;-57
2021/03/07 11:30:55;;;;;;;31.52;22.83;;;23.10;29.70;;;;;;5029081;28;20053;-58
2021/03/07 11:33:21;;;;;;;30.25;22.73;;;23.20;29.90;;;;;;5028526;28;20068;-57
2021/03/07 11:35:47;;;;;;;33.00;23.48;;;23.20;29.80;;;;;;5025132;28;20056;-56
2021/03/07 11:38:13;;;;;;;38.67;27.92;;;23.20;30.20;;;;;;5026018;28;20048;-45
2021/03/07 11:40:39;;;;;;;25.10;19.55;;;23.20;30.90;;;;;;5025821;28;20034;-57
2021/03/07 11:43:05;;;;;;;22.13;16.77;;;23.20;30.30;;;;;;5023711;28;20441;-59
2021/03/07 11:45:31;;;;;;;19.40;15.30;;;23.20;29.80;;;;;;5018672;28;20029;-61
2021/03/07 11:47:56;;;;;;;19.42;14.52;;;23.20;29.30;;;;;;5028659;28;20055;-61
2021/03/07 11:50:22;;;;;;;22.90;14.23;;;23.20;29.00;;;;;;5025926;28;20041;-57
2021/03/07 11:52:48;;;;;;;22.17;15.15;;;23.30;28.80;;;;;;5025948;28;20707;-60
2021/03/07 11:55:14;;;;;;;21.42;15.10;;;23.30;28.90;;;;;;5024257;28;20029;-56
2021/03/07 11:57:40;;;;;;;21.75;14.65;;;23.30;29.10;;;;;;5026024;28;20029;-52
2021/03/07 12:00:07;;;;;;;21.67;14.73;;;23.40;29.30;;;;;;5030630;28;20037;-53
2021/03/07 12:02:39;;;;;;;21.92;15.63;;;23.40;29.40;;;;;;5030239;28;20033;-56
2021/03/07 12:05:06;;;;;;;21.30;15.07;;;23.40;29.70;;;;;;5026471;28;20033;-56
2021/03/07 12:07:32;;;;;;;16.10;13.63;;;23.50;29.70;;;;;;5023311;28;20534;-62
2021/03/07 12:09:58;;;;;;;19.02;14.43;;;23.50;29.60;;;;;;5023151;28;20036;-47
2021/03/07 12:12:24;;;;;;;17.33;12.60;;;23.60;29.30;;;;;;5020301;28;20080;-52
2021/03/07 12:14:50;;;;;;;17.73;13.35;;;23.60;29.10;;;;;;5022191;28;20048;-54
2021/03/07 12:17:16;;;;;;;17.02;12.77;;;23.60;28.90;;;;;;5020421;28;20033;-50
2021/03/07 12:19:42;;;;;;;16.85;12.70;;;23.60;28.70;;;;;;5020378;28;20566;-50
2021/03/07 12:22:07;;;;;;;15.45;12.27;;;23.60;28.50;;;;;;5022727;28;20441;-47
2021/03/07 12:24:33;;;;;;;15.95;10.40;;;23.60;28.40;;;;;;5023389;28;20025;-54
2021/03/07 12:27:05;;;;;;;13.85;10.80;;;23.70;28.30;;;;;;5025885;28;20918;-52
2021/03/07 12:29:35;;;;;;;14.80;9.98;;;23.70;28.20;;;;;;5021489;28;20052;-51
2021/03/07 12:32:02;;;;;;;11.82;9.00;;;23.70;28.10;;;;;;5022187;28;20041;-58
2021/03/07 12:34:28;;;;;;;15.88;9.57;;;23.70;28.50;;;;;;5020423;28;20475;-55
2021/03/07 12:36:54;;;;;;;10.00;8.25;;;23.70;27.90;;;;;;5022237;28;20097;-52
2021/03/07 12:39:20;;;;;;;10.68;8.07;;;23.70;27.80;;;;;;5021081;28;20125;-56
2021/03/07 12:41:46;;;;;;;10.45;7.78;;;23.70;27.70;;;;;;5021842;28;20029;-51
2021/03/07 12:44:13;;;;;;;9.82;7.00;;;23.70;27.60;;;;;;5023574;28;20030;-51
2021/03/07 12:46:39;;;;;;;10.40;8.30;;;23.80;27.50;;;;;;5019776;28;20026;-52
2021/03/07 12:49:06;;;;;;;14.00;10.88;;;23.80;27.30;;;;;;5019368;28;20045;-49
2021/03/07 12:51:31;;;;;;;15.48;12.98;;;23.70;27.10;;;;;;5022975;28;20026;-52